Time;durP1;ratioP1;P1;durP2;ratioP2;P2;SDS_P1;SDS_P2;PMS_P1;PMS_P2;Temp;Humidity;BMP_temperature;BMP_pressure;BME280_temperature;BME280_humidity;BME280_pressure;Samples;Min_cycle;Max_cycle;Signal;HPM_P1;HPM_P2
2024/01/05 00:02:18;;;;;;;9.85;6.15;;;;;;;;;;5072816;28;20204;-72
2024/01/05 00:04:46;;;;;;;14.05;6.10;;;;;;;;;;5072895;28;20212;-73
2024/01/05 00:07:12;;;;;;;8.93;5.60;;;;;;;;;;5072877;28;20204;-72
2024/01/05 00:09:38;;;;;;;7.97;5.28;;;;;;;;;;5072725;28;20227;-73
2024/01/05 00:12:05;;;;;;;10.05;5.95;;;;;;;;;;5072318;28;20204;-72
2024/01/05 00:14:32;;;;;;;8.18;5.15;;;;;;;;;;5072174;28;20208;-73
2024/01/05 00:16:59;;;;;;;7.85;5.40;;;;;;;;;;5072344;28;20227;-73
2024/01/05 00:19:25;;;;;;;7.38;5.00;;;;;;;;;;5072482;28;20234;-73
2024/01/05 00:21:53;;;;;;;8.80;6.05;;;;;;;;;;5072133;28;20571;-73
2024/01/05 00:24:19;;;;;;;13.15;6.28;;;;;;;;;;5072336;28;20613;-72
2024/01/05 00:26:45;;;;;;;10.40;6.00;;;;;;;;;;5072091;28;20225;-72
2024/01/05 00:29:12;;;;;;;12.75;6.57;;;;;;;;;;5072584;28;20257;-73
2024/01/05 00:31:39;;;;;;;13.50;5.95;;;;;;;;;;5072458;28;20231;-72
2024/01/05 00:34:05;;;;;;;9.35;5.97;;;;;;;;;;5072266;28;20207;-72
2024/01/05 00:36:31;;;;;;;12.77;6.10;;;;;;;;;;5072334;28;20228;-72
2024/01/05 00:38:59;;;;;;;8.13;5.60;;;;;;;;;;5072383;28;20220;-72
2024/01/05 00:41:25;;;;;;;10.02;5.30;;;;;;;;;;5071987;28;20196;-72
2024/01/05 00:43:51;;;;;;;7.40;4.95;;;;;;;;;;5072024;28;20638;-72
2024/01/05 00:46:18;;;;;;;6.82;5.40;;;;;;;;;;5072136;28;20599;-72
2024/01/05 00:48:44;;;;;;;6.70;4.88;;;;;;;;;;5072098;28;20205;-72
2024/01/05 00:51:10;;;;;;;10.98;5.60;;;;;;;;;;5072050;28;20614;-72
2024/01/05 00:53:37;;;;;;;8.57;5.43;;;;;;;;;;5072729;28;20664;-72
2024/01/05 00:56:05;;;;;;;8.02;4.70;;;;;;;;;;5072137;28;20723;-72
2024/01/05 00:58:31;;;;;;;6.13;4.38;;;;;;;;;;5072252;28;20235;-73
2024/01/05 01:00:57;;;;;;;8.80;5.35;;;;;;;;;;5071946;28;20227;-71
2024/01/05 01:03:24;;;;;;;9.50;5.05;;;;;;;;;;5072052;28;20204;-71
2024/01/05 01:05:50;;;;;;;10.23;5.50;;;;;;;;;;5071797;28;20753;-71
2024/01/05 01:08:16;;;;;;;9.07;4.53;;;;;;;;;;5071756;28;20660;-71
2024/01/05 01:10:42;;;;;;;9.40;4.85;;;;;;;;;;5071956;28;20584;-71
2024/01/05 01:13:10;;;;;;;7.93;5.43;;;;;;;;;;5072052;28;20338;-71
2024/01/05 01:15:36;;;;;;;9.88;4.47;;;;;;;;;;5071374;28;20224;-71
2024/01/05 01:18:03;;;;;;;10.80;4.95;;;;;;;;;;5071973;28;20201;-71
2024/01/05 01:20:29;;;;;;;8.65;4.65;;;;;;;;;;5071638;28;20754;-71
2024/01/05 01:22:55;;;;;;;10.00;5.70;;;;;;;;;;5071833;28;20223;-72
2024/01/05 01:25:21;;;;;;;7.63;4.75;;;;;;;;;;5071814;28;20239;-71
2024/01/05 01:27:48;;;;;;;10.10;4.72;;;;;;;;;;5074575;28;20203;-72
2024/01/05 01:30:15;;;;;;;9.05;4.80;;;;;;;;;;5075630;28;20212;-72
2024/01/05 01:32:42;;;;;;;12.65;5.07;;;;;;;;;;5075818;28;20207;-72
2024/01/05 01:35:08;;;;;;;7.72;4.57;;;;;;;;;;5075895;28;20228;-72
2024/01/05 01:37:34;;;;;;;12.10;5.30;;;;;;;;;;5075950;28;20255;-72
2024/01/05 01:40:01;;;;;;;7.63;4.72;;;;;;;;;;5076253;28;20231;-72
2024/01/05 01:42:27;;;;;;;7.25;4.95;;;;;;;;;;5076795;28;20200;-72
2024/01/05 01:44:53;;;;;;;8.15;5.00;;;;;;;;;;5076615;28;20204;-72
2024/01/05 01:47:21;;;;;;;10.75;4.78;;;;;;;;;;5077566;28;20209;-71
2024/01/05 01:49:47;;;;;;;11.45;5.45;;;;;;;;;;5076896;28;20197;-71
2024/01/05 01:52:14;;;;;;;8.27;4.93;;;;;;;;;;5075318;28;20208;-71
2024/01/05 01:54:40;;;;;;;10.13;5.10;;;;;;;;;;5075487;28;20696;-72
2024/01/05 01:57:06;;;;;;;8.90;5.05;;;;;;;;;;5075045;28;20269;-71
2024/01/05 01:59:33;;;;;;;6.50;5.20;;;;;;;;;;5075281;28;20216;-72
2024/01/05 02:02:00;;;;;;;11.38;5.05;;;;;;;;;;5075124;28;20283;-72
2024/01/05 02:04:29;;;;;;;8.77;5.50;;;;;;;;;;5075428;28;20566;-72
2024/01/05 02:06:55;;;;;;;4.72;4.25;;;;;;;;;;5074658;28;20224;-72
2024/01/05 02:09:22;;;;;;;11.38;5.03;;;;;;;;;;5075217;28;20250;-71
2024/01/05 02:11:48;;;;;;;10.05;5.03;;;;;;;;;;5074911;28;20587;-71
2024/01/05 02:14:14;;;;;;;7.03;4.90;;;;;;;;;;5074805;28;20734;-71
2024/01/05 02:16:41;;;;;;;16.40;5.30;;;;;;;;;;5074846;28;20289;-71
2024/01/05 02:19:07;;;;;;;11.13;4.97;;;;;;;;;;5074623;28;20207;-72
2024/01/05 02:21:38;;;;;;;10.48;5.70;;;;;;;;;;5074754;28;20204;-71
2024/01/05 02:24:06;;;;;;;9.20;5.18;;;;;;;;;;5074670;28;20812;-72
2024/01/05 02:26:32;;;;;;;7.53;4.60;;;;;;;;;;5074302;28;20637;-71
2024/01/05 02:28:58;;;;;;;8.27;4.60;;;;;;;;;;5074383;28;20208;-71
2024/01/05 02:31:25;;;;;;;8.60;4.72;;;;;;;;;;5074267;28;20213;-71
2024/01/05 02:33:51;;;;;;;9.52;4.47;;;;;;;;;;5074199;28;20258;-72
2024/01/05 02:36:17;;;;;;;6.55;4.35;;;;;;;;;;5074395;28;20228;-72
2024/01/05 02:38:43;;;;;;;8.02;4.65;;;;;;;;;;5073911;28;20226;-72
2024/01/05 02:41:11;;;;;;;8.20;4.95;;;;;;;;;;5074555;28;20277;-73
2024/01/05 02:43:37;;;;;;;9.43;4.72;;;;;;;;;;5074797;28;20196;-73
2024/01/05 02:46:04;;;;;;;8.45;4.35;;;;;;;;;;5074071;28;20270;-72
2024/01/05 02:48:30;;;;;;;10.27;5.20;;;;;;;;;;5074350;28;20665;-73
2024/01/05 02:50:56;;;;;;;10.40;5.57;;;;;;;;;;5074360;28;20262;-72
2024/01/05 02:53:23;;;;;;;8.50;5.15;;;;;;;;;;5074145;28;20625;-73
2024/01/05 02:55:49;;;;;;;8.57;4.90;;;;;;;;;;5073971;28;20224;-71
2024/01/05 02:58:16;;;;;;;10.52;5.45;;;;;;;;;;5074110;28;20204;-72
2024/01/05 03:00:43;;;;;;;5.47;4.10;;;;;;;;;;5074147;28;20216;-72
2024/01/05 03:03:09;;;;;;;12.00;5.07;;;;;;;;;;5073808;28;20205;-72
2024/01/05 03:05:35;;;;;;;8.57;4.93;;;;;;;;;;5074041;28;20235;-72
2024/01/05 03:08:02;;;;;;;7.07;4.55;;;;;;;;;;5074056;28;20204;-72
2024/01/05 03:10:28;;;;;;;7.53;4.47;;;;;;;;;;5073795;28;20292;-72
2024/01/05 03:12:55;;;;;;;8.00;4.97;;;;;;;;;;5074053;28;20208;-72
2024/01/05 03:15:22;;;;;;;11.95;4.85;;;;;;;;;;5073388;28;20273;-72
2024/01/05 03:17:49;;;;;;;8.63;4.43;;;;;;;;;;5073891;28;20211;-72
2024/01/05 03:20:17;;;;;;;8.70;4.28;;;;;;;;;;5073594;28;20220;-72
2024/01/05 03:22:43;;;;;;;7.63;4.88;;;;;;;;;;5073551;28;20196;-72
2024/01/05 03:25:10;;;;;;;9.80;5.18;;;;;;;;;;5073080;28;20582;-72
2024/01/05 03:27:36;;;;;;;11.55;6.03;;;;;;;;;;5073441;28;20611;-72
2024/01/05 03:30:02;;;;;;;10.80;6.03;;;;;;;;;;5073499;28;20295;-72
2024/01/05 03:32:30;;;;;;;11.43;5.63;;;;;;;;;;5073404;28;20618;-72
2024/01/05 03:34:56;;;;;;;8.25;5.32;;;;;;;;;;5073203;28;20224;-72
2024/01/05 03:37:22;;;;;;;7.78;4.35;;;;;;;;;;5073337;28;20212;-72
2024/01/05 03:39:49;;;;;;;7.90;4.50;;;;;;;;;;5072967;28;20197;-72
2024/01/05 03:42:15;;;;;;;7.60;4.68;;;;;;;;;;5073207;28;20262;-72
2024/01/05 03:44:41;;;;;;;7.85;4.45;;;;;;;;;;5072930;28;20209;-72
2024/01/05 03:47:07;;;;;;;8.40;4.40;;;;;;;;;;5072958;28;20200;-72
2024/01/05 03:49:36;;;;;;;7.47;4.40;;;;;;;;;;5072187;28;20262;-72
2024/01/05 03:52:02;;;;;;;4.63;4.10;;;;;;;;;;5072664;28;20212;-72
2024/01/05 03:54:28;;;;;;;5.75;4.78;;;;;;;;;;5072636;28;20669;-72
2024/01/05 03:56:54;;;;;;;6.97;4.63;;;;;;;;;;5072632;28;20726;-72
2024/01/05 03:59:21;;;;;;;7.47;4.10;;;;;;;;;;5072729;28;20668;-72
2024/01/05 04:01:47;;;;;;;10.98;4.85;;;;;;;;;;5072692;28;20700;-72
2024/01/05 04:04:14;;;;;;;8.15;4.60;;;;;;;;;;5073065;28;20197;-72
2024/01/05 04:06:42;;;;;;;13.68;4.55;;;;;;;;;;5072633;28;20251;-72
2024/01/05 04:09:09;;;;;;;8.48;4.53;;;;;;;;;;5072488;28;20608;-72
2024/01/05 04:11:36;;;;;;;8.85;4.40;;;;;;;;;;5072416;28;20200;-72
2024/01/05 04:14:03;;;;;;;7.68;5.10;;;;;;;;;;5072427;28;20649;-72
2024/01/05 04:16:29;;;;;;;9.02;4.85;;;;;;;;;;5072328;28;20224;-72
2024/01/05 04:18:55;;;;;;;6.22;5.03;;;;;;;;;;5074755;28;20349;-72
2024/01/05 04:21:22;;;;;;;7.93;4.55;;;;;;;;;;5073733;28;20221;-72
2024/01/05 04:23:49;;;;;;;7.60;4.53;;;;;;;;;;5072487;28;20280;-72
2024/01/05 04:26:15;;;;;;;9.07;5.03;;;;;;;;;;5072258;28;20751;-72
2024/01/05 04:28:42;;;;;;;9.32;5.00;;;;;;;;;;5072691;28;20665;-72
2024/01/05 04:31:08;;;;;;;10.45;4.70;;;;;;;;;;5080965;28;20196;-72
2024/01/05 04:33:34;;;;;;;11.57;5.07;;;;;;;;;;5092362;28;20642;-72
2024/01/05 04:36:00;;;;;;;7.93;4.72;;;;;;;;;;5092515;28;20224;-72
2024/01/05 04:38:28;;;;;;;9.55;4.20;;;;;;;;;;5093878;28;20254;-72
2024/01/05 04:40:56;;;;;;;8.07;4.30;;;;;;;;;;5093271;28;20280;-72
2024/01/05 04:43:22;;;;;;;7.80;3.63;;;;;;;;;;5093048;28;20204;-72
2024/01/05 04:45:48;;;;;;;7.03;3.58;;;;;;;;;;5085729;28;20224;-72
2024/01/05 04:48:15;;;;;;;9.93;4.68;;;;;;;;;;5072493;28;20207;-72
2024/01/05 04:50:41;;;;;;;6.25;4.50;;;;;;;;;;5072388;28;20196;-71
2024/01/05 04:53:07;;;;;;;7.57;4.18;;;;;;;;;;5072119;28;20215;-71
2024/01/05 04:55:33;;;;;;;6.80;3.78;;;;;;;;;;5072123;28;20224;-72
2024/01/05 04:58:01;;;;;;;8.75;4.10;;;;;;;;;;5072536;28;20226;-72
2024/01/05 05:00:27;;;;;;;8.80;4.47;;;;;;;;;;5071574;28;20311;-71
2024/01/05 05:02:53;;;;;;;5.65;4.07;;;;;;;;;;5071914;28;20205;-72
2024/01/05 05:05:20;;;;;;;7.07;3.70;;;;;;;;;;5071914;28;20224;-72
2024/01/05 05:07:46;;;;;;;6.43;4.18;;;;;;;;;;5071807;28;20204;-72
2024/01/05 05:10:12;;;;;;;4.38;3.25;;;;;;;;;;5071750;28;20223;-72
2024/01/05 05:12:38;;;;;;;5.00;3.55;;;;;;;;;;5071932;28;20246;-71
2024/01/05 05:15:07;;;;;;;7.13;3.67;;;;;;;;;;5071647;28;20269;-72
2024/01/05 05:17:34;;;;;;;11.32;4.25;;;;;;;;;;5071802;28;20288;-72
2024/01/05 05:20:00;;;;;;;6.57;3.90;;;;;;;;;;5071631;28;20225;-72
2024/01/05 05:22:26;;;;;;;5.97;3.97;;;;;;;;;;5071580;28;20258;-72
2024/01/05 05:24:54;;;;;;;8.98;4.75;;;;;;;;;;5071435;28;20261;-73
2024/01/05 05:27:20;;;;;;;9.73;4.85;;;;;;;;;;5071588;28;20734;-73
2024/01/05 05:29:47;;;;;;;13.48;5.25;;;;;;;;;;5071983;28;20699;-72
2024/01/05 05:32:15;;;;;;;7.63;4.53;;;;;;;;;;5071543;28;20262;-73
2024/01/05 05:34:43;;;;;;;11.10;5.20;;;;;;;;;;5071821;28;20249;-73
2024/01/05 05:37:09;;;;;;;8.88;4.75;;;;;;;;;;5071177;28;20204;-73
2024/01/05 05:39:36;;;;;;;11.23;4.70;;;;;;;;;;5071758;28;20204;-73
2024/01/05 05:42:02;;;;;;;9.60;5.13;;;;;;;;;;5071369;28;20603;-73
2024/01/05 05:44:29;;;;;;;5.53;4.43;;;;;;;;;;5071327;28;20200;-73
2024/01/05 05:46:56;;;;;;;7.50;5.00;;;;;;;;;;5071486;28;20297;-73
2024/01/05 05:49:23;;;;;;;6.00;4.88;;;;;;;;;;5071728;28;20209;-72
2024/01/05 05:51:49;;;;;;;9.23;4.63;;;;;;;;;;5071101;28;20204;-72
2024/01/05 05:54:16;;;;;;;9.73;4.93;;;;;;;;;;5071307;28;20669;-72
2024/01/05 05:56:42;;;;;;;9.60;5.20;;;;;;;;;;5071525;28;20220;-72
2024/01/05 05:59:08;;;;;;;5.45;4.57;;;;;;;;;;5071440;28;20257;-72
2024/01/05 06:01:34;;;;;;;8.80;5.07;;;;;;;;;;5071530;28;20286;-72
2024/01/05 06:04:01;;;;;;;7.82;4.75;;;;;;;;;;5071195;28;20716;-72
2024/01/05 06:06:28;;;;;;;7.55;5.00;;;;;;;;;;5070918;28;20744;-72
2024/01/05 06:08:54;;;;;;;7.00;4.90;;;;;;;;;;5071242;28;20613;-72
2024/01/05 06:11:21;;;;;;;11.63;4.82;;;;;;;;;;5071196;28;20201;-72
2024/01/05 06:13:47;;;;;;;7.40;5.00;;;;;;;;;;5074087;28;20196;-72
2024/01/05 06:16:14;;;;;;;7.57;4.75;;;;;;;;;;5074801;28;20227;-72
2024/01/05 06:18:41;;;;;;;10.20;5.18;;;;;;;;;;5075188;28;20200;-72
2024/01/05 06:21:07;;;;;;;8.30;4.70;;;;;;;;;;5074607;28;20228;-72
2024/01/05 06:23:35;;;;;;;9.52;5.20;;;;;;;;;;5074857;28;20200;-72
2024/01/05 06:26:01;;;;;;;10.70;5.00;;;;;;;;;;5074526;28;20273;-72
2024/01/05 06:28:28;;;;;;;9.73;4.82;;;;;;;;;;5074626;28;20204;-72
2024/01/05 06:30:54;;;;;;;7.63;4.90;;;;;;;;;;5074404;28;20254;-72
2024/01/05 06:33:20;;;;;;;10.35;5.22;;;;;;;;;;5074608;28;20720;-72
2024/01/05 06:35:47;;;;;;;10.10;5.47;;;;;;;;;;5074483;28;20236;-72
2024/01/05 06:38:13;;;;;;;12.23;5.22;;;;;;;;;;5074631;28;20266;-72
2024/01/05 06:40:41;;;;;;;6.13;4.30;;;;;;;;;;5074201;28;20205;-72
2024/01/05 06:43:07;;;;;;;8.45;4.50;;;;;;;;;;5074757;28;20262;-72
2024/01/05 06:45:34;;;;;;;11.05;5.20;;;;;;;;;;5074329;28;20708;-72
2024/01/05 06:48:00;;;;;;;10.70;5.20;;;;;;;;;;5075935;28;20200;-72
2024/01/05 06:50:27;;;;;;;5.85;4.43;;;;;;;;;;5076003;28;20212;-72
2024/01/05 06:52:53;;;;;;;6.43;4.70;;;;;;;;;;5073672;28;20205;-72
2024/01/05 06:55:20;;;;;;;8.13;3.78;;;;;;;;;;5073767;28;20221;-62
2024/01/05 07:00:50;;;;;;;7.65;3.92;;;;;;;;;;5073265;28;20195;-63
2024/01/05 07:03:15;;;;;;;7.45;4.00;;;;;;;;;;5071088;28;20627;-63
2024/01/05 07:05:42;;;;;;;5.43;3.90;;;;;;;;;;5070900;28;20224;-64
2024/01/05 07:08:08;;;;;;;8.13;4.13;;;;;;;;;;5070834;28;20699;-64
2024/01/05 07:10:34;;;;;;;8.18;3.80;;;;;;;;;;5070856;28;20287;-63
2024/01/05 07:13:01;;;;;;;15.25;4.63;;;;;;;;;;5070811;28;20254;-64
2024/01/05 07:15:29;;;;;;;6.85;4.03;;;;;;;;;;5058952;28;20239;-64
2024/01/05 07:17:56;;;;;;;7.05;4.30;;;;;;;;;;4968070;28;20234;-64
2024/01/05 07:20:23;;;;;;;6.13;4.22;;;;;;;;;;4965813;28;20211;-64
2024/01/05 07:22:49;;;;;;;6.82;3.80;;;;;;;;;;4968630;28;20731;-65
2024/01/05 07:25:15;;;;;;;5.35;4.28;;;;;;;;;;4965574;28;20624;-63
2024/01/05 07:27:41;;;;;;;6.90;3.85;;;;;;;;;;4965406;28;20277;-65
2024/01/05 07:30:08;;;;;;;7.88;4.32;;;;;;;;;;4965854;28;20212;-64
2024/01/05 07:32:34;;;;;;;9.10;4.13;;;;;;;;;;4965429;28;20750;-63
2024/01/05 07:35:03;;;;;;;11.38;6.20;;;;;;;;;;5019743;28;20291;-63
2024/01/05 07:37:30;;;;;;;7.22;5.15;;;;;;;;;;4962080;28;20295;-62
2024/01/05 07:39:56;;;;;;;8.18;5.10;;;;;;;;;;4962494;28;20223;-63
2024/01/05 07:42:22;;;;;;;10.77;5.15;;;;;;;;;;4962665;28;20234;-63
2024/01/05 07:44:49;;;;;;;8.77;5.57;;;;;;;;;;4962296;28;20212;-64
2024/01/05 07:47:15;;;;;;;8.38;4.65;;;;;;;;;;4962554;28;20684;-63
2024/01/05 07:49:41;;;;;;;8.85;4.78;;;;;;;;;;4962466;28;20233;-63
2024/01/05 07:52:09;;;;;;;10.77;5.07;;;;;;;;;;4963150;28;20560;-63
2024/01/05 07:54:35;;;;;;;10.57;4.63;;;;;;;;;;4965368;28;20216;-63
2024/01/05 07:57:01;;;;;;;5.80;5.05;;;;;;;;;;4966595;28;20667;-64
2024/01/05 07:59:27;;;;;;;10.55;4.70;;;;;;;;;;4967247;28;20622;-65
2024/01/05 08:01:54;;;;;;;9.60;5.00;;;;;;;;;;4966358;28;20219;-65
2024/01/05 08:04:20;;;;;;;5.75;4.43;;;;;;;;;;4967793;28;20211;-65
2024/01/05 08:06:47;;;;;;;9.90;5.47;;;;;;;;;;4966747;28;20236;-65
2024/01/05 08:09:15;;;;;;;9.98;5.63;;;;;;;;;;4966731;28;20254;-65
2024/01/05 08:11:42;;;;;;;12.38;6.40;;;;;;;;;;4980927;28;20294;-63
2024/01/05 08:14:08;;;;;;;8.02;5.68;;;;;;;;;;4966921;28;20207;-63
2024/01/05 08:16:34;;;;;;;13.27;6.20;;;;;;;;;;4966676;28;20319;-64
2024/01/05 08:19:01;;;;;;;12.00;6.25;;;;;;;;;;4999738;28;20257;-64
2024/01/05 08:21:27;;;;;;;12.00;5.55;;;;;;;;;;4967010;28;20231;-63
2024/01/05 08:23:53;;;;;;;10.13;5.80;;;;;;;;;;4966874;28;20660;-63
2024/01/05 08:26:21;;;;;;;11.35;5.80;;;;;;;;;;4978980;28;20630;-62
2024/01/05 08:28:47;;;;;;;10.15;4.90;;;;;;;;;;4972728;28;20626;-63
2024/01/05 08:31:13;;;;;;;17.88;9.48;;;;;;;;;;4966442;28;20243;-61
2024/01/05 08:33:40;;;;;;;16.75;9.25;;;;;;;;;;4966914;28;20243;-61
2024/01/05 08:36:07;;;;;;;14.05;8.30;;;;;;;;;;4965619;28;20223;-61
2024/01/05 08:38:33;;;;;;;11.98;6.10;;;;;;;;;;4968548;28;20235;-65
2024/01/05 08:40:59;;;;;;;11.00;6.63;;;;;;;;;;4972069;28;20207;-63
2024/01/05 08:43:27;;;;;;;12.50;5.97;;;;;;;;;;4970494;28;20227;-62
2024/01/05 08:45:53;;;;;;;11.15;5.50;;;;;;;;;;4971288;28;20314;-62
2024/01/05 08:48:20;;;;;;;14.50;5.00;;;;;;;;;;4972447;28;20207;-64
2024/01/05 08:50:46;;;;;;;12.25;5.47;;;;;;;;;;4971148;28;20226;-63
2024/01/05 08:53:12;;;;;;;8.25;4.80;;;;;;;;;;4971827;28;20211;-63
2024/01/05 08:55:38;;;;;;;9.55;5.50;;;;;;;;;;4971958;28;20584;-64
2024/01/05 08:58:05;;;;;;;5.13;4.40;;;;;;;;;;4974177;28;20660;-63
2024/01/05 09:00:33;;;;;;;7.18;4.68;;;;;;;;;;4972402;28;20262;-62
2024/01/05 09:02:59;;;;;;;7.07;4.20;;;;;;;;;;4965584;28;20310;-64
2024/01/05 09:05:25;;;;;;;6.97;4.18;;;;;;;;;;4973504;28;20231;-64
2024/01/05 09:07:53;;;;;;;10.60;4.95;;;;;;;;;;4972795;28;20208;-63
2024/01/05 09:10:19;;;;;;;15.13;5.82;;;;;;;;;;4970758;28;20208;-63
2024/01/05 09:12:45;;;;;;;17.42;5.45;;;;;;;;;;4971871;28;20204;-63
2024/01/05 09:15:11;;;;;;;9.77;5.50;;;;;;;;;;4970058;28;20236;-62
2024/01/05 09:17:39;;;;;;;10.15;5.43;;;;;;;;;;4966754;28;20218;-63
2024/01/05 09:20:07;;;;;;;11.70;6.03;;;;;;;;;;4966743;28;20697;-63
2024/01/05 09:22:33;;;;;;;9.95;5.53;;;;;;;;;;4966279;28;20227;-62
2024/01/05 09:24:59;;;;;;;14.52;6.45;;;;;;;;;;4965734;28;20293;-62
2024/01/05 09:27:25;;;;;;;13.32;6.78;;;;;;;;;;4966365;28;20265;-62
2024/01/05 09:29:52;;;;;;;15.82;5.40;;;;;;;;;;4966440;28;20261;-62
2024/01/05 09:32:18;;;;;;;11.30;5.57;;;;;;;;;;4970339;28;20275;-62
2024/01/05 09:34:45;;;;;;;13.38;6.20;;;;;;;;;;4968502;28;20208;-63
2024/01/05 09:37:11;;;;;;;14.73;6.35;;;;;;;;;;4965310;28;20204;-62
2024/01/05 09:39:38;;;;;;;9.70;5.57;;;;;;;;;;4966751;28;20461;-64
2024/01/05 09:42:04;;;;;;;13.38;6.57;;;;;;;;;;4965813;28;20227;-65
2024/01/05 09:44:31;;;;;;;14.27;5.90;;;;;;;;;;4966193;28;20712;-63
2024/01/05 09:46:57;;;;;;;11.82;5.32;;;;;;;;;;4966653;28;20332;-64
2024/01/05 09:49:24;;;;;;;9.13;4.90;;;;;;;;;;4973015;28;20226;-64
2024/01/05 09:51:52;;;;;;;13.77;5.93;;;;;;;;;;4973178;28;20211;-62
2024/01/05 09:54:18;;;;;;;12.88;5.95;;;;;;;;;;4971624;28;20200;-63
2024/01/05 09:56:46;;;;;;;11.95;5.90;;;;;;;;;;4968722;28;20223;-62
2024/01/05 09:59:12;;;;;;;10.43;5.05;;;;;;;;;;4969109;28;20676;-61
2024/01/05 10:01:40;;;;;;;9.02;5.65;;;;;;;;;;4968483;28;20291;-64
2024/01/05 10:04:09;;;;;;;14.30;6.90;;;;;;;;;;4961831;28;20261;-63
2024/01/05 10:06:35;;;;;;;12.40;7.35;;;;;;;;;;4968595;28;20232;-64
2024/01/05 10:09:05;;;;;;;12.85;6.93;;;;;;;;;;4969410;28;20635;-66
2024/01/05 10:11:32;;;;;;;10.73;5.18;;;;;;;;;;5004666;28;20293;-63
2024/01/05 10:14:00;;;;;;;8.40;4.72;;;;;;;;;;4977858;28;20218;-63
2024/01/05 10:16:33;;;;;;;11.20;4.75;;;;;;;;;;4975366;28;20258;-61
2024/01/05 10:19:09;;;;;;;8.05;4.40;;;;;;;;;;4970405;28;20204;-61
2024/01/05 10:21:35;;;;;;;7.13;4.70;;;;;;;;;;4969784;28;20204;-62
2024/01/05 10:24:03;;;;;;;7.30;4.47;;;;;;;;;;4968503;28;20924;-63
2024/01/05 10:26:32;;;;;;;9.98;4.93;;;;;;;;;;4968828;28;20226;-63
2024/01/05 10:29:00;;;;;;;8.48;5.13;;;;;;;;;;4967710;28;20215;-64
2024/01/05 10:31:26;;;;;;;9.93;5.03;;;;;;;;;;4968750;28;20233;-62
2024/01/05 10:33:53;;;;;;;10.85;5.18;;;;;;;;;;4968892;28;20212;-64
2024/01/05 10:36:19;;;;;;;7.85;4.22;;;;;;;;;;4968310;28;20302;-62
2024/01/05 10:38:46;;;;;;;9.43;4.50;;;;;;;;;;4968647;28;20210;-62
2024/01/05 10:41:14;;;;;;;10.10;5.40;;;;;;;;;;4968172;28;20660;-62
2024/01/05 10:43:42;;;;;;;9.07;4.00;;;;;;;;;;4968196;28;20235;-61
2024/01/05 10:46:08;;;;;;;7.97;4.22;;;;;;;;;;4960676;28;20234;-61
2024/01/05 10:48:35;;;;;;;9.13;4.45;;;;;;;;;;4968299;28;20216;-61
2024/01/05 10:51:01;;;;;;;12.55;5.25;;;;;;;;;;4968466;28;20208;-63
2024/01/05 10:53:27;;;;;;;9.75;4.65;;;;;;;;;;4968225;28;20212;-62
2024/01/05 10:55:55;;;;;;;12.75;5.22;;;;;;;;;;4967570;28;20269;-63
2024/01/05 10:58:22;;;;;;;11.57;5.28;;;;;;;;;;4968224;28;20612;-61
2024/01/05 11:00:49;;;;;;;7.07;4.57;;;;;;;;;;4968139;28;20216;-64
2024/01/05 11:03:17;;;;;;;18.10;7.57;;;;;;;;;;4968432;28;20232;-64
2024/01/05 11:05:44;;;;;;;14.60;6.53;;;;;;;;;;4967822;28;20236;-64
2024/01/05 11:08:17;;;;;;;18.40;6.65;;;;;;;;;;4968561;28;20230;-63
2024/01/05 11:10:46;;;;;;;12.68;6.30;;;;;;;;;;5023998;28;20204;-63
2024/01/05 11:13:24;;;;;;;10.23;5.82;;;;;;;;;;4961060;28;20262;-61
2024/01/05 11:16:05;;;;;;;12.15;6.10;;;;;;;;;;4967307;28;20659;-64
2024/01/05 11:18:41;;;;;;;16.73;6.20;;;;;;;;;;4967859;28;20230;-63
2024/01/05 11:21:11;;;;;;;10.15;5.35;;;;;;;;;;4992024;28;20626;-62
2024/01/05 11:23:38;;;;;;;7.45;4.20;;;;;;;;;;4967742;28;20227;-62
2024/01/05 11:26:05;;;;;;;9.57;4.50;;;;;;;;;;4978085;28;20289;-63
2024/01/05 11:28:35;;;;;;;6.35;4.43;;;;;;;;;;5047453;28;20238;-61
2024/01/05 11:31:03;;;;;;;11.50;4.50;;;;;;;;;;4964520;28;20212;-62
2024/01/05 11:33:45;;;;;;;10.32;4.65;;;;;;;;;;4963932;28;21613;-63
2024/01/05 11:36:12;;;;;;;12.38;4.85;;;;;;;;;;4964244;28;20227;-64
2024/01/05 11:38:42;;;;;;;10.93;5.15;;;;;;;;;;4964521;28;20212;-63
2024/01/05 11:41:15;;;;;;;11.65;4.68;;;;;;;;;;4964740;28;20234;-66
2024/01/05 11:43:42;;;;;;;15.00;5.07;;;;;;;;;;4964138;28;20783;-64
2024/01/05 11:46:09;;;;;;;16.77;5.43;;;;;;;;;;4963925;28;20231;-64
2024/01/05 11:48:46;;;;;;;14.70;5.65;;;;;;;;;;4964355;28;20219;-64
2024/01/05 11:51:13;;;;;;;16.55;5.47;;;;;;;;;;4964317;28;20227;-65
2024/01/05 11:53:39;;;;;;;9.98;4.80;;;;;;;;;;4964212;28;20338;-64
2024/01/05 11:56:07;;;;;;;12.25;5.30;;;;;;;;;;4963612;28;20224;-62
2024/01/05 11:58:35;;;;;;;8.73;4.90;;;;;;;;;;4964632;28;20242;-65
2024/01/05 12:01:02;;;;;;;7.18;4.80;;;;;;;;;;4963908;28;20212;-64
2024/01/05 12:03:30;;;;;;;8.38;4.15;;;;;;;;;;4964101;28;20836;-64
2024/01/05 12:05:57;;;;;;;7.72;4.70;;;;;;;;;;4963864;28;20318;-63
2024/01/05 12:08:23;;;;;;;9.95;4.72;;;;;;;;;;4964370;28;20628;-63
2024/01/05 12:10:52;;;;;;;6.88;4.38;;;;;;;;;;4977268;28;20710;-62
2024/01/05 12:13:22;;;;;;;9.95;5.10;;;;;;;;;;4963588;28;20208;-62
2024/01/05 12:15:51;;;;;;;8.23;4.50;;;;;;;;;;4963525;28;20246;-65
2024/01/05 12:18:18;;;;;;;6.18;4.30;;;;;;;;;;4963499;28;20245;-62
2024/01/05 12:20:46;;;;;;;9.48;4.03;;;;;;;;;;4963780;28;20357;-63
2024/01/05 12:23:13;;;;;;;6.55;4.15;;;;;;;;;;4964208;28;20300;-65
2024/01/05 12:25:41;;;;;;;7.95;4.20;;;;;;;;;;4962849;28;20286;-66
2024/01/05 12:28:13;;;;;;;10.18;4.20;;;;;;;;;;4963978;28;20216;-64
2024/01/05 12:30:40;;;;;;;6.78;3.60;;;;;;;;;;4963573;28;20660;-64
2024/01/05 12:33:06;;;;;;;8.10;4.43;;;;;;;;;;4963504;28;20212;-64
2024/01/05 12:35:32;;;;;;;7.50;3.70;;;;;;;;;;4962693;28;20228;-63
2024/01/05 12:38:00;;;;;;;14.50;4.88;;;;;;;;;;4963674;28;20234;-65
2024/01/05 12:40:25;;;;;;;7.53;4.10;;;;;;;;;;4963268;28;20270;-65
2024/01/05 12:42:52;;;;;;;5.72;4.20;;;;;;;;;;4963093;28;20219;-61
2024/01/05 12:45:22;;;;;;;8.98;4.30;;;;;;;;;;4963514;28;20270;-60
2024/01/05 12:47:48;;;;;;;5.85;3.97;;;;;;;;;;4963247;28;20689;-60
2024/01/05 12:50:23;;;;;;;7.95;4.10;;;;;;;;;;4963476;28;20642;-60
2024/01/05 12:52:49;;;;;;;4.75;3.53;;;;;;;;;;4963104;28;20766;-60
2024/01/05 12:55:27;;;;;;;9.80;4.53;;;;;;;;;;4962711;28;20231;-59
2024/01/05 12:57:54;;;;;;;7.28;4.00;;;;;;;;;;4962772;28;20235;-61
2024/01/05 13:00:22;;;;;;;7.95;4.60;;;;;;;;;;4963723;28;20212;-61
2024/01/05 13:02:48;;;;;;;9.85;4.40;;;;;;;;;;4963185;28;20702;-61
2024/01/05 13:05:30;;;;;;;5.32;3.83;;;;;;;;;;4962866;28;20223;-60
2024/01/05 13:07:57;;;;;;;7.78;4.40;;;;;;;;;;4963184;28;20215;-64
2024/01/05 13:10:24;;;;;;;9.13;4.78;;;;;;;;;;4973577;28;20239;-63
2024/01/05 13:12:52;;;;;;;11.90;5.00;;;;;;;;;;4966119;28;20216;-60
2024/01/05 13:15:18;;;;;;;10.32;5.45;;;;;;;;;;4962744;28;20335;-62
2024/01/05 13:17:46;;;;;;;11.23;5.07;;;;;;;;;;4962980;28;20637;-63
2024/01/05 13:20:12;;;;;;;7.57;4.55;;;;;;;;;;4963060;28;20591;-62
2024/01/05 13:22:38;;;;;;;9.82;4.28;;;;;;;;;;4964883;28;20239;-63
2024/01/05 13:25:05;;;;;;;7.43;3.53;;;;;;;;;;4966324;28;20227;-61
2024/01/05 13:27:32;;;;;;;12.10;3.85;;;;;;;;;;4966110;28;20265;-61
2024/01/05 13:30:00;;;;;;;4.72;3.70;;;;;;;;;;4966352;28;20212;-60
2024/01/05 13:32:26;;;;;;;6.35;3.47;;;;;;;;;;4965928;28;20223;-61
2024/01/05 13:34:53;;;;;;;7.55;3.40;;;;;;;;;;4966248;28;20208;-63
2024/01/05 13:37:20;;;;;;;8.57;3.38;;;;;;;;;;4965369;28;20554;-61
2024/01/05 13:39:46;;;;;;;5.85;3.67;;;;;;;;;;4966081;28;20208;-60
2024/01/05 13:42:12;;;;;;;7.13;3.70;;;;;;;;;;4965869;28;20630;-64
2024/01/05 13:44:38;;;;;;;9.40;4.82;;;;;;;;;;4966092;28;20368;-62
2024/01/05 13:47:06;;;;;;;9.55;4.93;;;;;;;;;;4965527;28;20686;-61
2024/01/05 13:49:32;;;;;;;5.35;4.20;;;;;;;;;;4965989;28;20220;-63
2024/01/05 13:51:59;;;;;;;6.35;4.05;;;;;;;;;;4965626;28;20232;-62
2024/01/05 13:54:25;;;;;;;6.78;4.10;;;;;;;;;;4965794;28;20571;-62
2024/01/05 13:56:51;;;;;;;11.05;4.43;;;;;;;;;;4965040;28;20841;-62
2024/01/05 13:59:18;;;;;;;5.43;3.53;;;;;;;;;;4966130;28;20211;-62
2024/01/05 14:01:44;;;;;;;6.38;3.63;;;;;;;;;;4965837;28;20216;-62
2024/01/05 14:04:12;;;;;;;6.47;4.07;;;;;;;;;;4965708;28;20232;-62
2024/01/05 14:06:38;;;;;;;9.35;3.88;;;;;;;;;;4965207;28;20240;-62
2024/01/05 14:09:05;;;;;;;6.43;4.20;;;;;;;;;;4965852;28;20751;-60
2024/01/05 14:11:31;;;;;;;9.15;4.90;;;;;;;;;;4967958;28;20298;-61
2024/01/05 14:13:58;;;;;;;7.28;4.20;;;;;;;;;;4966758;28;20204;-61
2024/01/05 14:16:24;;;;;;;8.05;4.40;;;;;;;;;;4966536;28;20234;-61
2024/01/05 14:18:51;;;;;;;10.25;5.55;;;;;;;;;;4966021;28;20642;-61
2024/01/05 14:21:22;;;;;;;9.57;4.63;;;;;;;;;;4966877;28;20258;-60
2024/01/05 14:23:49;;;;;;;12.75;4.97;;;;;;;;;;4968459;28;20314;-61
2024/01/05 14:26:15;;;;;;;6.82;4.43;;;;;;;;;;4967736;28;20232;-60
2024/01/05 14:28:43;;;;;;;9.43;4.65;;;;;;;;;;4968588;28;20756;-61
2024/01/05 14:31:09;;;;;;;7.30;4.18;;;;;;;;;;4968196;28;20212;-63
2024/01/05 14:33:35;;;;;;;7.70;4.60;;;;;;;;;;4967599;28;20207;-62
2024/01/05 14:36:04;;;;;;;7.35;4.38;;;;;;;;;;4968131;28;20278;-63
2024/01/05 14:38:32;;;;;;;9.35;4.55;;;;;;;;;;4967666;28;20677;-63
2024/01/05 14:40:58;;;;;;;6.05;4.75;;;;;;;;;;4967843;28;20627;-64